createdAt,value
2022-12-08T00:00:08.125Z,13.37
2022-12-08T00:02:35.129Z,14.00
2022-12-08T00:05:20.347Z,10.60
2022-12-08T00:08:05.150Z,12.40
2022-12-08T00:10:49.357Z,11.53
2022-12-08T00:13:17.111Z,13.10
2022-12-08T00:15:43.970Z,11.83
2022-12-08T00:18:10.857Z,14.70
2022-12-08T00:20:37.774Z,9.87
2022-12-08T00:23:04.646Z,12.20
2022-12-08T00:25:31.519Z,12.87
2022-12-08T00:27:58.078Z,14.93
2022-12-08T00:30:25.346Z,12.27
2022-12-08T00:32:52.205Z,12.43
2022-12-08T00:35:19.108Z,12.03
2022-12-08T00:37:46.017Z,12.03
2022-12-08T00:40:12.902Z,16.37
2022-12-08T00:42:39.504Z,14.07
2022-12-08T00:45:06.946Z,14.00
2022-12-08T00:47:34.504Z,12.47
2022-12-08T00:50:01.603Z,15.93
2022-12-08T00:52:28.721Z,13.83
2022-12-08T00:54:55.831Z,13.50
2022-12-08T00:57:22.423Z,11.67
2022-12-08T00:59:52.119Z,12.93
2022-12-08T01:02:19.007Z,12.60
2022-12-08T01:04:46.352Z,10.37
2022-12-08T01:07:13.252Z,17.37
2022-12-08T01:09:40.109Z,13.80
2022-12-08T01:12:07.737Z,13.73
2022-12-08T01:14:34.397Z,14.60
2022-12-08T01:17:01.008Z,15.13
2022-12-08T01:19:27.906Z,11.50
2022-12-08T01:21:55.108Z,10.43
2022-12-08T01:24:21.978Z,14.47
2022-12-08T01:26:49.130Z,11.53
2022-12-08T01:29:16.129Z,10.77
2022-12-08T01:31:43.557Z,13.77
2022-12-08T01:34:10.833Z,13.80
2022-12-08T01:36:37.999Z,12.97
2022-12-08T01:39:07.171Z,14.37
2022-12-08T01:41:35.660Z,15.20
2022-12-08T01:44:04.211Z,11.03
2022-12-08T01:46:32.355Z,16.73
2022-12-08T01:49:03.631Z,14.20
2022-12-08T01:51:34.172Z,14.07
2022-12-08T01:54:03.686Z,16.07
2022-12-08T01:56:37.067Z,12.40
2022-12-08T01:59:03.971Z,13.20
2022-12-08T02:01:30.878Z,18.20
2022-12-08T02:04:00.035Z,13.63
2022-12-08T02:06:28.082Z,11.40
2022-12-08T02:08:55.123Z,17.23
2022-12-08T02:11:21.934Z,16.40
2022-12-08T02:13:51.693Z,12.07
2022-12-08T02:16:31.187Z,11.60
2022-12-08T02:19:30.244Z,14.17
2022-12-08T02:21:59.701Z,13.10
2022-12-08T02:24:32.459Z,16.90
2022-12-08T02:27:19.403Z,13.33
2022-12-08T02:30:07.513Z,14.60
2022-12-08T02:33:09.742Z,15.10
2022-12-08T02:35:44.533Z,13.37
2022-12-08T02:38:20.179Z,17.20
2022-12-08T02:40:54.106Z,12.50
2022-12-08T02:43:27.501Z,12.40
2022-12-08T02:45:59.894Z,13.57
2022-12-08T02:48:30.045Z,12.47
2022-12-08T02:50:57.442Z,14.80
2022-12-08T02:53:27.266Z,12.73
2022-12-08T02:56:01.937Z,12.33
2022-12-08T02:58:59.332Z,13.97
2022-12-08T03:01:40.607Z,11.37
2022-12-08T03:04:16.977Z,14.47
2022-12-08T03:06:53.862Z,12.60
2022-12-08T03:09:30.136Z,14.43
2022-12-08T03:12:02.937Z,11.17
2022-12-08T03:14:31.579Z,11.23
2022-12-08T03:16:58.724Z,15.60
2022-12-08T03:19:28.380Z,13.00
2022-12-08T03:22:02.260Z,13.70
2022-12-08T03:24:31.042Z,12.27
2022-12-08T03:27:01.448Z,11.50
2022-12-08T03:29:28.436Z,15.17
2022-12-08T03:31:58.724Z,10.83
2022-12-08T03:34:27.775Z,14.00
2022-12-08T03:36:54.730Z,11.73
2022-12-08T03:39:22.091Z,14.80
2022-12-08T03:41:48.960Z,15.87
2022-12-08T03:44:15.906Z,11.40
2022-12-08T03:46:45.198Z,12.23
2022-12-08T03:49:12.242Z,10.70
2022-12-08T03:51:40.324Z,12.63
2022-12-08T03:54:07.202Z,12.77
2022-12-08T03:56:37.639Z,19.60
2022-12-08T03:59:04.854Z,13.90
2022-12-08T04:01:31.817Z,12.33
2022-12-08T04:03:58.851Z,14.73
2022-12-08T04:06:25.984Z,14.50
2022-12-08T04:08:54.258Z,15.63
2022-12-08T04:11:21.129Z,16.17
2022-12-08T04:13:50.111Z,17.47
2022-12-08T04:16:18.401Z,18.07
2022-12-08T04:18:45.683Z,20.20
2022-12-08T04:21:14.727Z,18.43
2022-12-08T04:23:41.736Z,17.23
2022-12-08T04:26:08.997Z,21.57
2022-12-08T04:28:35.576Z,18.83
2022-12-08T04:31:04.582Z,18.43
2022-12-08T04:33:32.080Z,19.23
2022-12-08T04:35:58.999Z,20.50
2022-12-08T04:38:25.895Z,21.17
2022-12-08T04:40:52.793Z,20.87
2022-12-08T04:43:19.958Z,16.07
2022-12-08T04:45:47.246Z,18.37
2022-12-08T04:48:14.797Z,18.33
2022-12-08T04:50:43.183Z,21.13
2022-12-08T04:53:13.418Z,19.23
2022-12-08T04:55:43.069Z,19.60
2022-12-08T04:58:12.434Z,19.50
2022-12-08T05:00:39.365Z,20.37
2022-12-08T05:03:06.363Z,22.03
2022-12-08T05:05:33.625Z,21.90
2022-12-08T05:08:00.267Z,25.73
2022-12-08T05:10:27.278Z,23.53
2022-12-08T05:12:53.982Z,25.53
2022-12-08T05:15:20.598Z,22.07
2022-12-08T05:17:48.708Z,23.77
2022-12-08T05:20:15.337Z,22.77
2022-12-08T05:22:42.862Z,20.80
2022-12-08T05:25:10.281Z,21.47
2022-12-08T05:27:37.413Z,25.00
2022-12-08T05:30:05.526Z,24.10
2022-12-08T05:32:32.340Z,27.27
2022-12-08T05:35:01.381Z,23.17
2022-12-08T05:37:28.284Z,24.40
2022-12-08T05:39:55.765Z,25.30
2022-12-08T05:42:24.982Z,28.37
2022-12-08T05:44:51.923Z,28.43
2022-12-08T05:47:18.798Z,28.83
2022-12-08T05:49:45.459Z,23.00
2022-12-08T05:52:12.037Z,28.03
2022-12-08T05:54:39.042Z,28.63
2022-12-08T05:57:07.907Z,30.47
2022-12-08T05:59:34.743Z,26.30
2022-12-08T06:02:02.738Z,28.33
2022-12-08T06:04:29.364Z,28.33
2022-12-08T06:06:56.911Z,32.87
2022-12-08T06:09:26.649Z,30.70
2022-12-08T06:11:53.266Z,28.30
2022-12-08T06:14:20.563Z,34.93
2022-12-08T06:16:47.572Z,30.63
2022-12-08T06:19:15.113Z,31.90
2022-12-08T06:21:45.159Z,27.70
2022-12-08T06:24:13.238Z,34.40
2022-12-08T06:26:40.741Z,34.90
2022-12-08T06:29:07.443Z,34.77
2022-12-08T06:31:34.740Z,32.90
2022-12-08T06:34:03.084Z,32.47
2022-12-08T06:36:29.672Z,34.50
2022-12-08T06:38:56.852Z,35.90
2022-12-08T06:41:24.749Z,34.60
2022-12-08T06:43:51.438Z,38.70
2022-12-08T06:46:19.438Z,31.70
2022-12-08T06:48:47.241Z,34.50
2022-12-08T06:51:18.819Z,35.73
2022-12-08T06:53:46.592Z,39.43
2022-12-08T06:56:15.085Z,32.17
2022-12-08T06:58:41.898Z,33.57
2022-12-08T07:01:10.366Z,28.60
2022-12-08T07:03:39.962Z,32.73
2022-12-08T07:06:07.682Z,41.50
2022-12-08T07:08:34.749Z,32.50
2022-12-08T07:11:07.361Z,39.67
2022-12-08T07:13:34.277Z,32.50
2022-12-08T07:16:00.841Z,30.97
2022-12-08T07:18:27.386Z,32.30
2022-12-08T07:20:53.962Z,36.23
2022-12-08T07:23:21.223Z,30.83
2022-12-08T07:25:47.831Z,35.73
2022-12-08T07:28:14.944Z,36.80
2022-12-08T07:30:41.573Z,35.83
2022-12-08T07:33:08.214Z,32.00
2022-12-08T07:35:35.511Z,26.13
2022-12-08T07:38:02.279Z,33.03
2022-12-08T07:40:29.568Z,36.13
2022-12-08T07:42:56.136Z,30.77
2022-12-08T07:45:26.926Z,33.60
2022-12-08T07:47:57.760Z,32.07
2022-12-08T07:50:24.297Z,31.97
2022-12-08T07:52:51.185Z,34.67
2022-12-08T07:55:17.845Z,29.93
2022-12-08T07:57:45.067Z,35.20
2022-12-08T08:00:12.818Z,29.40
2022-12-08T08:02:39.832Z,34.67
2022-12-08T08:05:07.345Z,28.37
2022-12-08T08:07:34.037Z,32.43
2022-12-08T08:10:00.688Z,29.00
2022-12-08T08:12:32.117Z,41.57
2022-12-08T08:15:00.598Z,34.40
2022-12-08T08:17:27.581Z,27.00
2022-12-08T08:19:54.249Z,27.37
2022-12-08T08:22:21.284Z,32.23
2022-12-08T08:24:48.904Z,29.07
2022-12-08T08:27:15.504Z,36.13
2022-12-08T08:29:42.409Z,28.93
2022-12-08T08:32:09.715Z,30.90
2022-12-08T08:34:36.424Z,26.00
2022-12-08T08:37:03.384Z,27.23
2022-12-08T08:39:31.101Z,30.83
2022-12-08T08:41:57.995Z,29.80
2022-12-08T08:44:24.616Z,30.00
2022-12-08T08:46:51.201Z,25.67
2022-12-08T08:49:20.628Z,25.60
2022-12-08T08:51:47.605Z,26.80
2022-12-08T08:54:14.440Z,26.07
2022-12-08T08:56:41.360Z,27.60
2022-12-08T08:59:08.364Z,25.27
2022-12-08T09:01:35.043Z,30.10
2022-12-08T09:04:02.116Z,28.40
2022-12-08T09:06:29.482Z,27.60
2022-12-08T09:08:56.179Z,31.40
2022-12-08T09:11:23.557Z,27.60
2022-12-08T09:13:51.506Z,31.37
2022-12-08T09:16:19.905Z,29.17
2022-12-08T09:18:47.576Z,20.83
2022-12-08T09:21:19.603Z,22.83
2022-12-08T09:23:46.860Z,26.87
2022-12-08T09:26:13.491Z,23.77
2022-12-08T09:28:45.533Z,27.07
2022-12-08T09:31:12.886Z,24.70
2022-12-08T09:33:39.596Z,18.07
2022-12-08T09:36:07.065Z,28.40
2022-12-08T09:38:34.029Z,24.13
2022-12-08T09:41:04.096Z,19.20
2022-12-08T09:43:55.668Z,22.77
2022-12-08T09:46:23.170Z,22.80
2022-12-08T09:48:54.850Z,24.17
2022-12-08T09:51:24.564Z,23.60
2022-12-08T09:53:54.582Z,22.70
2022-12-08T09:56:24.330Z,25.67
2022-12-08T09:58:55.959Z,20.53
2022-12-08T10:01:32.626Z,18.97
2022-12-08T10:03:59.996Z,20.03
2022-12-08T10:06:31.458Z,23.13
2022-12-08T10:09:11.124Z,21.83
2022-12-08T10:11:45.656Z,18.37
2022-12-08T10:14:21.095Z,20.80
2022-12-08T10:16:52.208Z,22.87
2022-12-08T10:19:21.580Z,18.63
2022-12-08T10:21:51.309Z,17.23
2022-12-08T10:24:23.138Z,21.27
2022-12-08T10:26:50.513Z,17.00
2022-12-08T10:29:18.209Z,17.27
2022-12-08T10:31:44.870Z,17.93
2022-12-08T10:34:17.743Z,20.00
2022-12-08T10:36:46.080Z,16.93
2022-12-08T10:39:36.783Z,20.37
2022-12-08T10:42:15.404Z,19.97
2022-12-08T10:44:54.483Z,19.67
2022-12-08T10:47:25.009Z,22.43
2022-12-08T10:50:09.288Z,18.73
2022-12-08T10:52:38.861Z,17.63
2022-12-08T10:55:14.715Z,17.90
2022-12-08T10:57:42.103Z,18.93
2022-12-08T11:00:14.562Z,21.57
2022-12-08T11:02:57.010Z,17.27
2022-12-08T11:05:27.813Z,18.77
2022-12-08T11:07:55.417Z,18.03
2022-12-08T11:10:31.411Z,21.53
2022-12-08T11:13:11.932Z,17.17
2022-12-08T11:15:40.798Z,17.33
2022-12-08T11:18:20.715Z,15.93
2022-12-08T11:20:47.608Z,19.67
2022-12-08T11:23:22.038Z,16.97
2022-12-08T11:25:49.431Z,17.63
2022-12-08T11:28:22.626Z,16.17
2022-12-08T11:30:54.144Z,17.67
2022-12-08T11:33:23.603Z,15.57
2022-12-08T11:35:54.020Z,16.53
2022-12-08T11:38:23.192Z,21.10
2022-12-08T11:40:54.573Z,14.93
2022-12-08T11:43:30.426Z,16.03
2022-12-08T11:46:02.529Z,16.43
2022-12-08T11:48:35.355Z,18.60
2022-12-08T11:51:07.156Z,17.73
2022-12-08T11:53:38.754Z,23.37
2022-12-08T11:56:12.694Z,16.83
2022-12-08T11:58:44.658Z,16.60
2022-12-08T12:01:18.886Z,15.40
2022-12-08T12:03:51.703Z,19.53
2022-12-08T12:09:28.434Z,16.40
2022-12-08T12:12:16.029Z,15.90
2022-12-08T12:15:26.636Z,15.57
2022-12-08T12:17:57.363Z,15.10
2022-12-08T12:20:27.855Z,15.40
2022-12-08T12:22:59.460Z,15.23
2022-12-08T12:25:27.145Z,16.07
2022-12-08T12:27:59.732Z,15.40
2022-12-08T12:30:30.524Z,15.80
2022-12-08T12:33:00.103Z,13.40
2022-12-08T12:35:32.810Z,13.67
2022-12-08T12:38:04.474Z,13.10
2022-12-08T12:40:40.525Z,12.73
2022-12-08T12:43:24.718Z,12.23
2022-12-08T12:46:44.790Z,14.33
2022-12-08T12:49:48.006Z,13.27
2022-12-08T12:52:40.068Z,14.87
2022-12-08T12:55:49.798Z,15.33
2022-12-08T12:58:33.278Z,17.00
2022-12-08T13:01:33.345Z,20.23
2022-12-08T13:04:06.573Z,17.93
2022-12-08T13:06:39.026Z,19.33
2022-12-08T13:09:06.591Z,15.03
2022-12-08T13:11:47.994Z,15.43
2022-12-08T13:14:28.735Z,17.10
2022-12-08T13:16:57.541Z,14.67
2022-12-08T13:19:25.394Z,16.10
2022-12-08T13:21:52.762Z,18.30
2022-12-08T13:24:30.514Z,17.00
2022-12-08T13:27:33.759Z,19.53
2022-12-08T13:30:36.716Z,21.93
2022-12-08T13:33:17.624Z,20.77
2022-12-08T13:35:51.063Z,18.80
2022-12-08T13:38:22.007Z,20.73
2022-12-08T13:40:50.099Z,25.70
2022-12-08T13:43:38.817Z,17.90
2022-12-08T13:50:47.896Z,16.93
2022-12-08T13:56:16.744Z,16.63
2022-12-08T13:57:32.807Z,17.90
2022-12-08T14:00:00.937Z,17.63
2022-12-08T14:02:32.697Z,19.70
2022-12-08T14:07:50.892Z,20.43
2022-12-08T14:10:21.861Z,20.53
2022-12-08T14:12:56.124Z,20.27
2022-12-08T14:15:25.042Z,17.10
2022-12-08T14:17:53.126Z,16.57
2022-12-08T14:20:24.617Z,15.63
2022-12-08T14:22:52.325Z,16.53
2022-12-08T14:25:20.652Z,14.50
2022-12-08T14:27:48.575Z,12.83
2022-12-08T14:30:21.103Z,14.60
2022-12-08T14:32:49.848Z,14.27
2022-12-08T14:35:22.493Z,14.03
2022-12-08T14:37:52.581Z,16.20
2022-12-08T14:40:24.153Z,14.80
2022-12-08T14:42:52.881Z,15.17
2022-12-08T14:45:20.297Z,14.93
2022-12-08T14:47:47.811Z,15.77
2022-12-08T14:50:38.514Z,15.27
2022-12-08T14:53:12.541Z,18.70
2022-12-08T14:55:39.521Z,15.90
2022-12-08T14:58:06.435Z,16.83
2022-12-08T15:00:33.751Z,14.27
2022-12-08T15:03:06.552Z,16.27
2022-12-08T15:05:33.626Z,16.07
2022-12-08T15:08:04.441Z,14.00
2022-12-08T15:10:37.282Z,15.00
2022-12-08T15:13:22.093Z,12.40
2022-12-08T15:15:51.169Z,13.90
2022-12-08T15:18:34.904Z,16.10
2022-12-08T15:21:04.330Z,11.17
2022-12-08T15:23:38.751Z,11.97
2022-12-08T15:26:06.216Z,11.90
2022-12-08T15:28:32.898Z,11.80
2022-12-08T15:30:59.910Z,11.67
2022-12-08T15:33:27.075Z,14.17
2022-12-08T15:35:53.825Z,10.73
2022-12-08T15:38:23.995Z,11.03
2022-12-08T15:40:51.917Z,12.60
2022-12-08T15:43:19.165Z,13.97
2022-12-08T15:45:57.964Z,12.57
2022-12-08T15:48:28.023Z,10.60
2022-12-08T15:50:55.739Z,12.53
2022-12-08T15:53:22.789Z,10.67
2022-12-08T15:56:25.202Z,15.90
2022-12-08T15:58:54.814Z,12.80
2022-12-08T16:01:24.969Z,14.77
2022-12-08T16:09:32.096Z,15.13
2022-12-08T16:12:17.785Z,15.17
2022-12-08T16:17:36.012Z,23.13
2022-12-08T16:20:04.344Z,23.33
2022-12-08T16:25:22.311Z,22.00
2022-12-08T16:28:29.424Z,15.03
2022-12-08T16:30:38.985Z,27.63
2022-12-08T16:33:06.125Z,19.60
2022-12-08T16:35:32.926Z,15.17
2022-12-08T16:37:59.933Z,18.13
2022-12-08T16:40:29.646Z,17.30
2022-12-08T16:42:56.461Z,17.60
2022-12-08T16:45:24.963Z,14.57
2022-12-08T16:47:54.726Z,17.53
2022-12-08T16:50:23.602Z,16.83
2022-12-08T16:52:55.526Z,17.23
2022-12-08T16:55:22.288Z,17.23
2022-12-08T16:57:49.230Z,17.90
2022-12-08T17:00:22.519Z,17.20
2022-12-08T17:02:51.429Z,18.73
2022-12-08T17:05:21.016Z,14.40
2022-12-08T17:07:49.866Z,14.37
2022-12-08T17:10:18.552Z,13.97
2022-12-08T17:12:45.458Z,14.23
2022-12-08T17:15:15.937Z,16.87
2022-12-08T17:17:42.668Z,13.43
2022-12-08T17:20:14.395Z,15.10
2022-12-08T17:22:41.962Z,11.90
2022-12-08T17:25:09.208Z,14.73
2022-12-08T17:27:36.309Z,13.30
2022-12-08T17:30:04.361Z,15.70
2022-12-08T17:32:31.491Z,15.43
2022-12-08T17:34:58.241Z,16.00
2022-12-08T17:37:25.488Z,21.23
2022-12-08T17:39:53.176Z,15.97
2022-12-08T17:42:25.080Z,17.43
2022-12-08T17:44:51.793Z,16.30
2022-12-08T17:47:20.051Z,16.23
2022-12-08T17:49:46.879Z,15.10
2022-12-08T17:52:15.375Z,17.30
2022-12-08T17:54:42.306Z,17.10
2022-12-08T17:57:09.728Z,15.07
2022-12-08T17:59:36.704Z,15.73
2022-12-08T18:02:05.559Z,19.87
2022-12-08T18:04:34.567Z,17.10
2022-12-08T18:07:02.706Z,33.93
2022-12-08T18:09:30.383Z,29.40
2022-12-08T18:11:57.088Z,22.93
2022-12-08T18:14:24.394Z,24.70
2022-12-08T18:16:51.067Z,26.20
2022-12-08T18:19:17.894Z,23.23
2022-12-08T18:21:44.637Z,23.10
2022-12-08T18:24:16.958Z,23.10
2022-12-08T18:26:43.558Z,23.47
2022-12-08T18:29:10.525Z,17.97
2022-12-08T18:31:37.837Z,21.40
2022-12-08T18:34:04.843Z,20.70
2022-12-08T18:36:31.626Z,20.90
2022-12-08T18:38:58.337Z,20.00
2022-12-08T18:41:25.882Z,21.80
2022-12-08T18:43:53.035Z,41.87
2022-12-08T18:46:20.029Z,38.07
2022-12-08T18:48:48.948Z,21.67
2022-12-08T18:51:18.403Z,23.63
2022-12-08T18:53:45.938Z,22.57
2022-12-08T18:56:22.190Z,22.33
2022-12-08T18:58:49.000Z,25.43
2022-12-08T19:01:17.212Z,24.67
2022-12-08T19:04:04.696Z,27.43
2022-12-08T19:06:32.200Z,24.97
2022-12-08T19:08:59.203Z,23.27
2022-12-08T19:11:28.544Z,24.63
2022-12-08T19:13:58.517Z,25.47
2022-12-08T19:16:25.179Z,23.67
2022-12-08T19:18:52.327Z,18.87
2022-12-08T19:21:19.684Z,23.53
2022-12-08T19:23:46.953Z,23.93
2022-12-08T19:26:13.868Z,23.00
2022-12-08T19:28:40.859Z,21.47
2022-12-08T19:31:09.068Z,18.57
2022-12-08T19:33:36.908Z,24.53
2022-12-08T19:36:06.383Z,19.90
2022-12-08T19:38:53.514Z,19.40
2022-12-08T19:41:41.187Z,18.50
2022-12-08T19:44:35.347Z,16.40
2022-12-08T19:47:02.694Z,17.40
2022-12-08T19:49:29.396Z,16.00
2022-12-08T19:51:56.260Z,17.07
2022-12-08T19:54:23.436Z,14.47
2022-12-08T19:56:50.817Z,12.33
2022-12-08T19:59:18.669Z,16.27
2022-12-08T20:01:47.354Z,13.67
2022-12-08T20:04:15.406Z,13.57
2022-12-08T20:06:43.221Z,16.23
2022-12-08T20:09:10.381Z,13.37
2022-12-08T20:11:37.105Z,13.37
2022-12-08T20:14:04.482Z,19.80
2022-12-08T20:16:32.024Z,12.30
2022-12-08T20:18:58.819Z,13.27
2022-12-08T20:21:25.621Z,13.13
2022-12-08T20:23:52.586Z,25.43
2022-12-08T20:26:21.320Z,19.00
2022-12-08T20:28:51.145Z,21.57
2022-12-08T20:31:34.593Z,17.67
2022-12-08T20:34:03.274Z,14.60
2022-12-08T20:36:33.451Z,16.73
2022-12-08T20:39:00.566Z,18.37
2022-12-08T20:41:27.910Z,15.73
2022-12-08T20:43:54.515Z,16.00
2022-12-08T20:46:22.028Z,14.77
2022-12-08T20:48:49.227Z,12.40
2022-12-08T20:51:17.139Z,15.37
2022-12-08T20:53:44.974Z,26.90
2022-12-08T20:56:16.300Z,22.93
2022-12-08T20:58:43.287Z,25.90
2022-12-08T21:01:11.412Z,18.30
2022-12-08T21:03:39.765Z,28.03
2022-12-08T21:06:07.473Z,22.50
2022-12-08T21:08:34.954Z,22.00
2022-12-08T21:11:02.033Z,22.83
2022-12-08T21:13:29.156Z,20.90
2022-12-08T21:15:56.485Z,16.03
2022-12-08T21:18:23.909Z,17.10
2022-12-08T21:20:52.221Z,53.63
2022-12-08T21:23:18.943Z,16.70
2022-12-08T21:25:46.961Z,16.90
2022-12-08T21:28:14.801Z,15.30
2022-12-08T21:30:42.426Z,14.70
2022-12-08T21:33:09.681Z,14.23
2022-12-08T21:35:36.660Z,19.00
2022-12-08T21:38:06.122Z,14.33
2022-12-08T21:40:42.876Z,14.97
2022-12-08T21:43:09.844Z,19.37
2022-12-08T21:45:36.807Z,22.27
2022-12-08T21:48:10.709Z,15.10
2022-12-08T21:50:38.669Z,16.73
2022-12-08T21:53:05.979Z,17.33
2022-12-08T21:55:33.307Z,16.90
2022-12-08T21:58:01.762Z,14.40
2022-12-08T22:00:28.834Z,17.50
2022-12-08T22:02:56.954Z,17.57
2022-12-08T22:05:24.407Z,19.20
2022-12-08T22:07:51.482Z,21.30
2022-12-08T22:10:20.410Z,17.13
2022-12-08T22:12:47.630Z,19.67
2022-12-08T22:15:14.781Z,16.40
2022-12-08T22:17:43.361Z,17.70
2022-12-08T22:20:12.541Z,18.13
2022-12-08T22:22:39.982Z,19.17
2022-12-08T22:25:10.150Z,18.33
2022-12-08T22:27:39.322Z,22.50
2022-12-08T22:30:07.636Z,17.27
2022-12-08T22:32:37.302Z,19.30
2022-12-08T22:35:05.044Z,18.90
2022-12-08T22:37:31.896Z,17.33
2022-12-08T22:39:59.182Z,17.57
2022-12-08T22:42:27.683Z,18.73
2022-12-08T22:44:55.178Z,19.17
2022-12-08T22:47:22.049Z,16.73
2022-12-08T22:49:48.956Z,18.07
2022-12-08T22:52:15.989Z,20.50
2022-12-08T22:54:43.137Z,20.03
2022-12-08T22:57:10.298Z,21.37
2022-12-08T22:59:40.055Z,21.63
2022-12-08T23:02:07.483Z,17.47
2022-12-08T23:04:34.811Z,22.73
2022-12-08T23:07:01.899Z,17.77
2022-12-08T23:09:29.131Z,20.53
2022-12-08T23:11:56.268Z,22.37
2022-12-08T23:14:23.287Z,17.90
2022-12-08T23:16:50.483Z,23.07
2022-12-08T23:19:18.387Z,22.00
2022-12-08T23:21:45.326Z,23.77
2022-12-08T23:24:12.260Z,21.97
2022-12-08T23:26:39.482Z,20.10
2022-12-08T23:29:06.629Z,23.77
2022-12-08T23:31:33.584Z,25.00
2022-12-08T23:34:00.824Z,21.53
2022-12-08T23:36:28.159Z,29.47
2022-12-08T23:38:55.470Z,32.87
2022-12-08T23:41:24.512Z,25.70
2022-12-08T23:43:51.876Z,25.77
2022-12-08T23:46:20.422Z,25.80
2022-12-08T23:48:47.985Z,30.33
2022-12-08T23:51:16.354Z,30.10
2022-12-08T23:53:44.079Z,35.83
2022-12-08T23:56:12.672Z,35.30
2022-12-08T23:58:39.875Z,29.00
